Flight Track Log - Related Links

Times and Time Zones

All times are in EDT time to prevent confusion due to time zone crossing. See the THY2480 flight status page for this flight to view local times or setup timezone preferences in your user account.

Time Position Orientation Groundspeed Altitude Reporting Facility
EDT Latitude Longitude Course Direction KTS MPH feet Rate Location/Type
Fri 03:26:00 AM 40.5439 29.5884 126° Southeast  Level Estimated
Fri 03:27:00 AM 40.4816 29.6972 127° Southeast  Level Estimated
Fri 03:28:00 AM 40.4193 29.8058 127° Southeast  Level Estimated
Fri 03:29:00 AM 40.3568 29.9142 127° Southeast  Level Estimated
Fri 03:30:00 AM 40.2942 30.0224 127° Southeast  Level Estimated
Fri 03:31:00 AM 40.2315 30.1304 127° Southeast  Level Estimated
Fri 03:32:00 AM 40.1688 30.2382 127° Southeast  Level Estimated
Fri 03:33:00 AM 40.1059 30.3458 127° Southeast  Level Estimated
Fri 03:34:00 AM 40.0429 30.4532 127° Southeast  Level Estimated
Fri 03:35:00 AM 39.9799 30.5604 127° Southeast  Level Estimated
Fri 03:36:00 AM 39.9167 30.6674 128° Southeast  Level Estimated
Fri 03:37:00 AM 39.8534 30.7742 128° Southeast  Level Estimated
Fri 03:38:00 AM 39.7901 30.8808 128° Southeast  Level Estimated
Fri 03:39:00 AM 39.7266 30.9872 128° Southeast  Level Estimated
Fri 03:40:00 AM 39.6630 31.0935 128° Southeast  Level Estimated
Fri 03:41:00 AM 39.5994 31.1995 128° Southeast  Level Estimated
Fri 03:42:00 AM 39.5356 31.3053 128° Southeast  Level Estimated
Fri 03:43:00 AM 39.4718 31.4109 128° Southeast  Level Estimated
Fri 03:44:00 AM 39.4078 31.5164 128° Southeast  Level Estimated
Fri 03:45:00 AM 39.3438 31.6216 128° Southeast  Level Estimated
Fri 03:46:00 AM 39.2797 31.7267 128° Southeast  Level Estimated
Fri 03:47:00 AM 39.2154 31.8316 128° Southeast  Level Estimated
Fri 03:48:00 AM 39.1511 31.9362 128° Southeast  Level Estimated
Fri 03:49:00 AM 39.0867 32.0407 128° Southeast  Level Estimated
Fri 03:50:00 AM 39.0222 32.1450 129° Southeast  Level Estimated
Fri 03:51:00 AM 38.9576 32.2491 129° Southeast  Level Estimated
Fri 03:52:00 AM 38.8929 32.3530 129° Southeast  Level Estimated
Fri 03:53:00 AM 38.8281 32.4567 129° Southeast  Level Estimated
Fri 03:54:00 AM 38.7632 32.5602 129° Southeast  Level Estimated
Fri 03:55:00 AM 38.6983 32.6636 129° Southeast  Level Estimated
Fri 03:56:00 AM 38.6332 32.7667 129° Southeast  Level Estimated
Fri 03:57:00 AM 38.5681 32.8697 129° Southeast  Level Estimated
Fri 03:58:00 AM 38.5028 32.9725 129° Southeast  Level Estimated
Fri 03:59:00 AM 38.4375 33.0751 129° Southeast  Level Estimated
Fri 04:00:00 AM 38.3721 33.1775 129° Southeast  Level Estimated
Fri 04:01:00 AM 38.3065 33.2797 129° Southeast  Level Estimated
Fri 04:02:00 AM 38.2410 33.3817 129° Southeast  Level Estimated
Fri 04:03:00 AM 38.1753 33.4836 129° Southeast  Level Estimated
Fri 04:04:00 AM 38.1095 33.5853 129° Southeast  Level Estimated
Fri 04:05:00 AM 38.0436 33.6868 129° Southeast  Level Estimated
Fri 04:06:00 AM 37.9777 33.7881 130° Southeast  Level Estimated
Fri 04:07:00 AM 37.9117 33.8892 130° Southeast  Level Estimated
Fri 04:08:00 AM 37.8455 33.9901 130° Southeast  Level Estimated
Fri 04:09:00 AM 37.7793 34.0909 130° Southeast  Level Estimated
Fri 04:10:00 AM 37.7130 34.1915 130° Southeast  Level Estimated
Fri 04:11:00 AM 37.6467 34.2919 130° Southeast  Level Estimated
Fri 04:12:00 AM 37.5802 34.3921 130° Southeast  Level Estimated
Fri 04:13:00 AM 37.5136 34.4921 130° Southeast  Level Estimated
Fri 04:14:00 AM 37.4470 34.5920 130° Southeast  Level Estimated
Fri 04:15:00 AM 37.3803 34.6917 130° Southeast  Level Estimated
Fri 04:16:00 AM 37.3135 34.7912 130° Southeast  Level Estimated
Fri 04:17:00 AM 37.2466 34.8905 130° Southeast  Level Estimated
Fri 04:18:00 AM 37.1797 34.9897 130° Southeast  Level Estimated
Fri 04:19:00 AM 37.1126 35.0886 130° Southeast  Level Estimated
Fri 04:20:00 AM 37.0455 35.1874 130° Southeast  Level Estimated
Fri 04:21:00 AM 36.9822 35.2804 130° Southeast  Level Estimated
Fri 04:22:00 AM 36.9822 35.2804 202° Southwest  Level Estimated
Fri 04:23:00 AM 36.9822 35.2804 202° Southwest  Level Estimated
Fri 04:24:00 AM 36.9822 35.2804 202° Southwest  Level Estimated
Fri 04:25:00 AM 36.9822 35.2804 202° Southwest  Level Estimated
Fri 04:26:00 AM 36.9822 35.2804 202° Southwest  Level Estimated
Fri 04:27:00 AM 36.9822 35.2804 202° Southwest  Level Estimated
Fri 04:28:00 AM 36.9822 35.2804 202° Southwest  Level Estimated
Fri 04:29:00 AM 36.9822 35.2804 202° Southwest  Level Estimated
Fri 04:30:00 AM 36.9822 35.2804 202° Southwest  Level Estimated
Fri 04:31:00 AM 36.9822 35.2804 202° Southwest  Level Estimated
Fri 04:32:00 AM 36.9822 35.2804 202° Southwest  Level Estimated
Fri 04:33:00 AM 36.9822 35.2804 202° Southwest  Level Estimated
Fri 04:34:00 AM 36.9822 35.2804 202° Southwest  Level Estimated
Fri 04:35:00 AM 36.9822 35.2804 202° Southwest  Level Estimated
Fri 04:36:00 AM 36.9822 35.2804 202° Southwest  Level Estimated

Login

Don't have an account? Register now (free) for customized features, flight alerts, and more!